createdAt,value
2022-11-15T00:00:44.681Z,9.661448
2022-11-15T00:01:44.726Z,9.661342
2022-11-15T00:02:44.700Z,9.661518
2022-11-15T00:03:44.685Z,9.661454
2022-11-15T00:04:44.642Z,9.661417
2022-11-15T00:05:44.643Z,9.661510
2022-11-15T00:06:44.723Z,9.661555
2022-11-15T00:07:56.698Z,9.661502
2022-11-15T00:08:46.767Z,9.661564
2022-11-15T00:09:46.191Z,9.661578
2022-11-15T00:10:44.620Z,9.661509
2022-11-15T00:11:44.599Z,9.661448
2022-11-15T00:12:44.627Z,9.661446
2022-11-15T00:13:44.630Z,9.661448
2022-11-15T00:14:44.712Z,9.661460
2022-11-15T00:15:44.621Z,9.661472
2022-11-15T00:16:44.636Z,9.661392
2022-11-15T00:17:44.563Z,9.661435
2022-11-15T00:18:50.252Z,9.661540
2022-11-15T00:19:46.579Z,9.661419
2022-11-15T00:20:44.565Z,9.661291
2022-11-15T00:21:44.549Z,9.661410
2022-11-15T00:22:44.549Z,9.661414
2022-11-15T00:23:44.558Z,9.661399
2022-11-15T00:24:44.545Z,9.661617
2022-11-15T00:25:44.542Z,9.661596
2022-11-15T00:26:44.558Z,9.661694
2022-11-15T00:27:44.508Z,9.661654
2022-11-15T00:28:44.517Z,9.661570
2022-11-15T00:29:44.542Z,9.661672
2022-11-15T00:30:44.616Z,9.661706
2022-11-15T00:31:44.478Z,9.661581
2022-11-15T00:32:44.505Z,9.661663
2022-11-15T00:33:44.529Z,9.661445
2022-11-15T00:34:44.502Z,9.661346
2022-11-15T00:35:44.476Z,9.661180
2022-11-15T00:36:44.449Z,9.661585
2022-11-15T00:37:44.460Z,9.661752
2022-11-15T00:38:44.499Z,9.661469
2022-11-15T00:39:44.472Z,9.661621
2022-11-15T00:40:44.456Z,9.661741
2022-11-15T00:41:45.434Z,9.661428
2022-11-15T00:42:44.435Z,9.661718
2022-11-15T00:43:45.122Z,9.661642
2022-11-15T00:44:44.441Z,9.661621
2022-11-15T00:45:44.425Z,9.661482
2022-11-15T00:46:44.419Z,9.661465
2022-11-15T00:47:44.392Z,9.661367
2022-11-15T00:48:44.406Z,9.661336
2022-11-15T00:49:44.427Z,9.661368
2022-11-15T00:50:44.400Z,9.661467
2022-11-15T00:51:44.384Z,9.661419
2022-11-15T00:52:44.393Z,9.661687
2022-11-15T00:53:44.384Z,9.661509
2022-11-15T00:54:44.394Z,9.661595
2022-11-15T00:55:44.362Z,9.661502
2022-11-15T00:56:44.330Z,9.661595
2022-11-15T00:57:44.376Z,9.661732
2022-11-15T00:58:44.324Z,9.661565
2022-11-15T00:59:44.376Z,9.661529
2022-11-15T01:00:44.401Z,9.661686
2022-11-15T01:01:44.304Z,9.661604
2022-11-15T01:02:44.345Z,9.661658
2022-11-15T01:03:44.293Z,9.661795
2022-11-15T01:04:47.596Z,9.661659
2022-11-15T01:05:44.333Z,9.661580
2022-11-15T01:06:44.396Z,9.661605
2022-11-15T01:07:44.403Z,9.661361
2022-11-15T01:08:44.289Z,9.661554
2022-11-15T01:09:44.260Z,9.661554
2022-11-15T01:10:44.308Z,9.661556
2022-11-15T01:11:44.274Z,9.661640
2022-11-15T01:12:44.260Z,9.661472
2022-11-15T01:13:44.249Z,9.661524
2022-11-15T01:14:45.332Z,9.661524
2022-11-15T01:15:44.377Z,9.661564
2022-11-15T01:16:44.222Z,9.661510
2022-11-15T01:17:44.250Z,9.661488
2022-11-15T01:18:44.254Z,9.661466
2022-11-15T01:19:44.202Z,9.661489
2022-11-15T01:20:44.241Z,9.661479
2022-11-15T01:21:44.262Z,9.661431
2022-11-15T01:22:44.213Z,9.661447
2022-11-15T01:23:44.197Z,9.661469
2022-11-15T01:24:44.214Z,9.661451
2022-11-15T01:25:44.156Z,9.661446
2022-11-15T01:26:44.198Z,9.661463
2022-11-15T01:27:44.220Z,9.661494
2022-11-15T01:28:44.184Z,9.661512
2022-11-15T01:29:44.146Z,9.661512
2022-11-15T01:30:44.139Z,9.661540
2022-11-15T01:31:44.166Z,9.661471
2022-11-15T01:32:44.170Z,9.661461
2022-11-15T01:33:44.122Z,9.661515
2022-11-15T01:34:44.130Z,9.661486
2022-11-15T01:35:44.175Z,9.661495
2022-11-15T01:36:44.118Z,9.661450
2022-11-15T01:37:44.557Z,9.661381
2022-11-15T01:38:44.121Z,9.661407
2022-11-15T01:39:44.123Z,9.661563
2022-11-15T01:40:44.089Z,9.661434
2022-11-15T01:41:44.090Z,9.661300
2022-11-15T01:42:44.062Z,9.660902
2022-11-15T01:43:44.174Z,9.661292
2022-11-15T01:44:44.073Z,9.661552
2022-11-15T01:45:44.115Z,9.661615
2022-11-15T01:46:44.043Z,9.661579
2022-11-15T01:47:44.022Z,9.661499
2022-11-15T01:48:44.103Z,9.661494
2022-11-15T01:49:44.042Z,9.661455
2022-11-15T01:50:44.034Z,9.661492
2022-11-15T01:51:44.023Z,9.661429
2022-11-15T01:52:44.031Z,9.661422
2022-11-15T01:53:44.006Z,9.661456
2022-11-15T01:54:44.129Z,9.661463
2022-11-15T01:55:43.986Z,9.661442
2022-11-15T01:56:44.018Z,9.661591
2022-11-15T01:57:44.019Z,9.661953
2022-11-15T01:58:44.015Z,9.661814
2022-11-15T01:59:44.057Z,9.661915
2022-11-15T02:00:44.013Z,9.661760
2022-11-15T02:01:43.933Z,9.661398
2022-11-15T02:02:44.954Z,9.661419
2022-11-15T02:03:43.950Z,9.661459
2022-11-15T02:04:43.977Z,9.661548
2022-11-15T02:05:43.968Z,9.661447
2022-11-15T02:06:43.915Z,9.661374
2022-11-15T02:07:43.916Z,9.661456
2022-11-15T02:08:43.923Z,9.661272
2022-11-15T02:09:43.919Z,9.661313
2022-11-15T02:10:43.917Z,9.661409
2022-11-15T02:11:43.893Z,9.661455
2022-11-15T02:12:43.908Z,9.661454
2022-11-15T02:13:43.878Z,9.661440
2022-11-15T02:14:43.859Z,9.661427
2022-11-15T02:15:43.876Z,9.661440
2022-11-15T02:16:43.887Z,9.661372
2022-11-15T02:17:43.860Z,9.661379
2022-11-15T02:18:43.970Z,9.661448
2022-11-15T02:19:43.835Z,9.661465
2022-11-15T02:20:43.853Z,9.661484
2022-11-15T02:21:43.874Z,9.661478
2022-11-15T02:22:43.829Z,9.661518
2022-11-15T02:23:43.804Z,9.661429
2022-11-15T02:24:43.803Z,9.661475
2022-11-15T02:25:43.817Z,9.661473
2022-11-15T02:26:43.829Z,9.661451
2022-11-15T02:27:43.815Z,9.661477
2022-11-15T02:28:43.772Z,9.661538
2022-11-15T02:29:43.772Z,9.661551
2022-11-15T02:30:43.792Z,9.661485
2022-11-15T02:31:43.787Z,9.661509
2022-11-15T02:32:43.871Z,9.661463
2022-11-15T02:33:43.733Z,9.661510
2022-11-15T02:34:44.734Z,9.661551
2022-11-15T02:35:43.730Z,9.661596
2022-11-15T02:36:43.752Z,9.661529
2022-11-15T02:37:43.723Z,9.661614
2022-11-15T02:38:43.854Z,9.661408
2022-11-15T02:39:43.713Z,9.661361
2022-11-15T02:40:43.704Z,9.661482
2022-11-15T02:41:43.690Z,9.661611
2022-11-15T02:42:43.684Z,9.661581
2022-11-15T02:43:43.735Z,9.661613
2022-11-15T02:44:43.713Z,9.661386
2022-11-15T02:45:43.698Z,9.661284
2022-11-15T02:46:43.687Z,9.661303
2022-11-15T02:47:43.668Z,9.661164
2022-11-15T02:48:43.667Z,9.660752
2022-11-15T02:49:43.660Z,9.660810
2022-11-15T02:50:43.663Z,9.660762
2022-11-15T02:51:43.637Z,9.660758
2022-11-15T02:52:43.649Z,9.661945
2022-11-15T02:53:43.638Z,9.661772
2022-11-15T02:54:43.678Z,9.661824
2022-11-15T02:55:43.615Z,9.661766
2022-11-15T02:56:43.614Z,9.661518
2022-11-15T02:57:43.585Z,9.661514
2022-11-15T02:58:43.602Z,9.661757
2022-11-15T02:59:43.580Z,9.661784
2022-11-15T03:00:43.717Z,9.661407
2022-11-15T03:01:43.594Z,9.661576
2022-11-15T03:02:43.574Z,9.661698
2022-11-15T03:03:43.576Z,9.661714
2022-11-15T03:04:43.585Z,9.661976
2022-11-15T03:05:43.572Z,9.661725
2022-11-15T03:06:43.561Z,9.661517
2022-11-15T03:07:43.514Z,9.661451
2022-11-15T03:08:43.516Z,9.661407
2022-11-15T03:09:43.551Z,9.661542
2022-11-15T03:10:43.547Z,9.661470
2022-11-15T03:11:43.507Z,9.661415
2022-11-15T03:12:43.506Z,9.661386
2022-11-15T03:13:43.498Z,9.661510
2022-11-15T03:14:43.505Z,9.661407
2022-11-15T03:15:43.458Z,9.661526
2022-11-15T03:16:43.613Z,9.661440
2022-11-15T03:17:43.450Z,9.661432
2022-11-15T03:18:43.491Z,9.661412
2022-11-15T03:19:43.454Z,9.661405
2022-11-15T03:20:43.463Z,9.661532
2022-11-15T03:21:43.464Z,9.661538
2022-11-15T03:22:43.470Z,9.661416
2022-11-15T03:23:43.467Z,9.661503
2022-11-15T03:24:43.406Z,9.661530
2022-11-15T03:25:43.398Z,9.661514
2022-11-15T03:26:43.390Z,9.661505
2022-11-15T03:27:43.416Z,9.661480
2022-11-15T03:28:43.392Z,9.661433
2022-11-15T03:29:43.395Z,9.661472
2022-11-15T03:30:43.385Z,9.661529
2022-11-15T03:31:48.597Z,9.661572
2022-11-15T03:32:44.392Z,9.661615
2022-11-15T03:33:43.356Z,9.661556
2022-11-15T03:34:43.351Z,9.661445
2022-11-15T03:35:43.334Z,9.661487
2022-11-15T03:36:43.334Z,9.661255
2022-11-15T03:37:43.335Z,9.661294
2022-11-15T03:38:43.519Z,9.661466
2022-11-15T03:39:43.335Z,9.661542
2022-11-15T03:40:43.309Z,9.661487
2022-11-15T03:41:43.299Z,9.661592
2022-11-15T03:42:43.314Z,9.661388
2022-11-15T03:43:43.403Z,9.661462
2022-11-15T03:44:43.300Z,9.661488
2022-11-15T03:45:43.290Z,9.661563
2022-11-15T03:46:43.268Z,9.661423
2022-11-15T03:47:43.278Z,9.661456
2022-11-15T03:48:43.279Z,9.661454
2022-11-15T03:49:43.261Z,9.661627
2022-11-15T03:50:43.244Z,9.661556
2022-11-15T03:51:43.230Z,9.661540
2022-11-15T03:52:43.222Z,9.661558
2022-11-15T03:53:43.252Z,9.661567
2022-11-15T03:54:43.247Z,9.661506
2022-11-15T03:55:43.232Z,9.661402
2022-11-15T03:56:43.226Z,9.661471
2022-11-15T03:57:43.198Z,9.661624
2022-11-15T03:58:43.192Z,9.661666
2022-11-15T03:59:43.190Z,9.661588
2022-11-15T04:00:43.316Z,9.661523
2022-11-15T04:01:43.236Z,9.661629
2022-11-15T04:02:43.148Z,9.661605
2022-11-15T04:03:43.162Z,9.661497
2022-11-15T04:04:43.176Z,9.661686
2022-11-15T04:05:43.276Z,9.661719
2022-11-15T04:06:43.145Z,9.661507
2022-11-15T04:07:43.162Z,9.661650
2022-11-15T04:08:43.999Z,9.661440
2022-11-15T04:09:43.155Z,9.661478
2022-11-15T04:10:43.134Z,9.661451
2022-11-15T04:11:43.380Z,9.661561
2022-11-15T04:12:43.093Z,9.661538
2022-11-15T04:13:43.078Z,9.661592
2022-11-15T04:14:43.077Z,9.661654
2022-11-15T04:15:43.084Z,9.661689
2022-11-15T04:16:44.197Z,9.661658
2022-11-15T04:17:44.081Z,9.661665
2022-11-15T04:18:43.065Z,9.661649
2022-11-15T04:19:43.051Z,9.661654
2022-11-15T04:20:43.047Z,9.661510
2022-11-15T04:21:43.015Z,9.661580
2022-11-15T04:22:43.151Z,9.661581
2022-11-15T04:23:43.021Z,9.661705
2022-11-15T04:24:43.017Z,9.661680
2022-11-15T04:25:43.033Z,9.661580
2022-11-15T04:26:42.994Z,9.661755
2022-11-15T04:27:43.004Z,9.661725
2022-11-15T04:28:42.997Z,9.661508
2022-11-15T04:29:42.988Z,9.661631
2022-11-15T04:30:43.006Z,9.661623
2022-11-15T04:31:43.002Z,9.661584
2022-11-15T04:32:42.969Z,9.661337
2022-11-15T04:33:43.095Z,9.661366
2022-11-15T04:34:42.993Z,9.661547
2022-11-15T04:35:42.941Z,9.661630
2022-11-15T04:36:42.973Z,9.661545
2022-11-15T04:37:48.959Z,9.661520
2022-11-15T04:38:45.051Z,9.661725
2022-11-15T04:39:42.916Z,9.661902
2022-11-15T04:40:42.968Z,9.661728
2022-11-15T04:41:42.919Z,9.661711
2022-11-15T04:42:43.058Z,9.661716
2022-11-15T04:43:42.903Z,9.661727
2022-11-15T04:44:42.985Z,9.661639
2022-11-15T04:45:42.877Z,9.661700
2022-11-15T04:46:42.867Z,9.661749
2022-11-15T04:47:42.891Z,9.661596
2022-11-15T04:48:42.868Z,9.661620
2022-11-15T04:49:42.996Z,9.661492
2022-11-15T04:50:42.870Z,9.661539
2022-11-15T04:51:42.813Z,9.661538
2022-11-15T04:52:42.839Z,9.661548
2022-11-15T04:53:42.819Z,9.661561
2022-11-15T04:54:42.827Z,9.661571
2022-11-15T04:55:42.848Z,9.661609
2022-11-15T04:56:42.847Z,9.661659
2022-11-15T04:57:42.807Z,9.661590
2022-11-15T04:58:42.817Z,9.661573
2022-11-15T04:59:42.781Z,9.661603
2022-11-15T05:00:42.864Z,9.661631
2022-11-15T05:01:45.140Z,9.661628
2022-11-15T05:02:43.776Z,9.661548
2022-11-15T05:03:42.751Z,9.661554
2022-11-15T05:04:42.758Z,9.661630
2022-11-15T05:05:42.742Z,9.661677
2022-11-15T05:06:42.776Z,9.661599
2022-11-15T05:07:42.787Z,9.661592
2022-11-15T05:08:42.719Z,9.661536
2022-11-15T05:09:42.737Z,9.661757
2022-11-15T05:10:42.698Z,9.661821
2022-11-15T05:11:42.752Z,9.661814
2022-11-15T05:12:42.688Z,9.661822
2022-11-15T05:13:42.715Z,9.661759
2022-11-15T05:14:42.684Z,9.661686
2022-11-15T05:15:42.663Z,9.661701
2022-11-15T05:16:42.669Z,9.661654
2022-11-15T05:17:42.746Z,9.661589
2022-11-15T05:18:42.667Z,9.661685
2022-11-15T05:19:42.677Z,9.661740
2022-11-15T05:20:42.629Z,9.661730
2022-11-15T05:21:42.643Z,9.661712
2022-11-15T05:22:42.847Z,9.661642
2022-11-15T05:23:42.635Z,9.661546
2022-11-15T05:24:42.612Z,9.661633
2022-11-15T05:25:42.627Z,9.661607
2022-11-15T05:26:42.588Z,9.661652
2022-11-15T05:27:42.601Z,9.661683
2022-11-15T05:28:42.623Z,9.661708
2022-11-15T05:29:42.567Z,9.661661
2022-11-15T05:30:42.563Z,9.661609
2022-11-15T05:31:42.554Z,9.661625
2022-11-15T05:32:42.584Z,9.661629
2022-11-15T05:33:42.631Z,9.661661
2022-11-15T05:34:42.551Z,9.661603
2022-11-15T05:35:42.543Z,9.661567
2022-11-15T05:36:42.550Z,9.661614
2022-11-15T05:37:42.565Z,9.661626
2022-11-15T05:38:42.534Z,9.661622
2022-11-15T05:39:42.724Z,9.661595
2022-11-15T05:40:42.525Z,9.661677
2022-11-15T05:41:42.502Z,9.661593
2022-11-15T05:42:42.495Z,9.661612
2022-11-15T05:43:42.479Z,9.661652
2022-11-15T05:44:42.602Z,9.661586
2022-11-15T05:45:42.479Z,9.661683
2022-11-15T05:46:42.496Z,9.661721
2022-11-15T05:47:42.478Z,9.661642
2022-11-15T05:48:42.477Z,9.661669
2022-11-15T05:49:42.441Z,9.661683
2022-11-15T05:50:42.569Z,9.661468
2022-11-15T05:51:42.442Z,9.661716
2022-11-15T05:52:42.440Z,9.661639
2022-11-15T05:53:42.433Z,9.661682
2022-11-15T05:54:42.402Z,9.661669
2022-11-15T05:55:42.451Z,9.661647
2022-11-15T05:56:42.409Z,9.661691
2022-11-15T05:57:42.399Z,9.661783
2022-11-15T05:58:42.427Z,9.661532
2022-11-15T05:59:42.412Z,9.661736
2022-11-15T06:00:42.367Z,9.661695
2022-11-15T06:01:42.448Z,9.661901
2022-11-15T06:02:42.370Z,9.662038
2022-11-15T06:03:42.359Z,9.661788
2022-11-15T06:04:42.365Z,9.661613
2022-11-15T06:05:42.375Z,9.661399
2022-11-15T06:06:42.454Z,9.661582
2022-11-15T06:07:42.318Z,9.661908
2022-11-15T06:08:42.372Z,9.661965
2022-11-15T06:09:42.311Z,9.661972
2022-11-15T06:10:42.328Z,9.662003
2022-11-15T06:11:42.329Z,9.661650
2022-11-15T06:12:42.336Z,9.661654
2022-11-15T06:13:42.285Z,9.661752
2022-11-15T06:14:42.292Z,9.661686
2022-11-15T06:15:42.277Z,9.661500
2022-11-15T06:16:42.272Z,9.661517
2022-11-15T06:17:42.507Z,9.661661
2022-11-15T06:18:42.267Z,9.661637
2022-11-15T06:19:42.244Z,9.661634
2022-11-15T06:20:42.236Z,9.661622
2022-11-15T06:21:42.258Z,9.661673
2022-11-15T06:22:42.263Z,9.661616
2022-11-15T06:23:42.301Z,9.661595
2022-11-15T06:24:42.243Z,9.661606
2022-11-15T06:25:42.235Z,9.661571
2022-11-15T06:26:42.194Z,9.661600
2022-11-15T06:27:42.183Z,9.661679
2022-11-15T06:28:42.640Z,9.661578
2022-11-15T06:29:42.190Z,9.661631
2022-11-15T06:30:42.199Z,9.661492
2022-11-15T06:31:42.197Z,9.661534
2022-11-15T06:32:42.183Z,9.661513
2022-11-15T06:33:42.152Z,9.661585
2022-11-15T06:34:42.195Z,9.661665
2022-11-15T06:35:42.142Z,9.661619
2022-11-15T06:36:42.137Z,9.661614
2022-11-15T06:37:42.142Z,9.661567
2022-11-15T06:41:11.707Z,9.661406
2022-11-15T06:42:11.716Z,9.661514
2022-11-15T06:43:11.720Z,9.661449
2022-11-15T06:44:11.714Z,9.661502
2022-11-15T06:45:11.838Z,9.661524
2022-11-15T06:46:11.683Z,9.661480
2022-11-15T06:47:11.673Z,9.661468
2022-11-15T06:48:11.691Z,9.661519
2022-11-15T06:49:11.667Z,9.661517
2022-11-15T06:50:11.691Z,9.661506
2022-11-15T06:51:11.705Z,9.661589
2022-11-15T06:52:11.714Z,9.661539
2022-11-15T06:53:11.658Z,9.661541
2022-11-15T06:54:11.644Z,9.661437
2022-11-15T06:55:11.637Z,9.661420
2022-11-15T06:56:11.773Z,9.661584
2022-11-15T06:57:11.617Z,9.661497
2022-11-15T06:58:11.618Z,9.661430
2022-11-15T06:59:11.627Z,9.661486
2022-11-15T07:00:11.625Z,9.661429
2022-11-15T07:01:11.678Z,9.661488
2022-11-15T07:02:11.632Z,9.661579
2022-11-15T07:03:11.573Z,9.661572
2022-11-15T07:04:11.561Z,9.661609
2022-11-15T07:05:11.556Z,9.661542
2022-11-15T07:06:11.549Z,9.661550
2022-11-15T07:07:11.752Z,9.661555
2022-11-15T07:08:11.598Z,9.661519
2022-11-15T07:09:11.569Z,9.661490
2022-11-15T07:10:11.548Z,9.661580
2022-11-15T07:11:11.533Z,9.661526
2022-11-15T07:12:11.519Z,9.661398
2022-11-15T07:13:11.530Z,9.661592
2022-11-15T07:14:11.552Z,9.661635
2022-11-15T07:15:11.524Z,9.661448
2022-11-15T07:16:11.499Z,9.661625
2022-11-15T07:17:11.503Z,9.661574
2022-11-15T07:18:11.585Z,9.661453
2022-11-15T07:19:11.472Z,9.661381
2022-11-15T07:20:11.447Z,9.661415
2022-11-15T07:21:11.483Z,9.661524
2022-11-15T07:22:11.452Z,9.661551
2022-11-15T07:23:11.506Z,9.661594
2022-11-15T07:24:11.454Z,9.661591
2022-11-15T07:25:11.440Z,9.661656
2022-11-15T07:26:11.416Z,9.661660
2022-11-15T07:27:11.442Z,9.661690
2022-11-15T07:28:11.415Z,9.661736
2022-11-15T07:29:11.449Z,9.661627
2022-11-15T07:30:11.427Z,9.661564
2022-11-15T07:31:11.401Z,9.661730
2022-11-15T07:32:11.395Z,9.661713
2022-11-15T07:33:11.387Z,9.661705
2022-11-15T07:34:11.356Z,9.661738
2022-11-15T07:35:11.405Z,9.661718
2022-11-15T07:36:11.378Z,9.661688
2022-11-15T07:37:11.377Z,9.661599
2022-11-15T07:38:11.385Z,9.661564
2022-11-15T07:39:11.377Z,9.661560
2022-11-15T07:40:11.456Z,9.661532
2022-11-15T07:41:11.328Z,9.661603
2022-11-15T07:42:11.319Z,9.661688
2022-11-15T07:43:11.328Z,9.661763
2022-11-15T07:44:11.307Z,9.661993
2022-11-15T07:45:11.335Z,9.661850
2022-11-15T07:46:11.323Z,9.661953
2022-11-15T07:47:11.277Z,9.661931
2022-11-15T07:48:11.275Z,9.661820
2022-11-15T07:49:11.258Z,9.661743
2022-11-15T07:50:11.278Z,9.661646
2022-11-15T07:51:14.024Z,9.661823
2022-11-15T07:52:11.300Z,9.661743
2022-11-15T07:53:11.263Z,9.661752
2022-11-15T07:54:11.261Z,9.661700
2022-11-15T07:55:11.256Z,9.661655
2022-11-15T07:56:11.232Z,9.661765
2022-11-15T07:57:11.364Z,9.661984
2022-11-15T07:58:11.234Z,9.661941
2022-11-15T07:59:11.286Z,9.662000
2022-11-15T08:00:11.205Z,9.661849
2022-11-15T08:01:11.378Z,9.661937
2022-11-15T08:02:11.369Z,9.661938
2022-11-15T08:03:11.203Z,9.661957
2022-11-15T08:04:11.247Z,9.661788
2022-11-15T08:05:11.183Z,9.661766
2022-11-15T08:06:11.174Z,9.661703
2022-11-15T08:07:11.235Z,9.661542
2022-11-15T08:08:11.287Z,9.661589
2022-11-15T08:09:11.145Z,9.661549
2022-11-15T08:10:11.153Z,9.661634
2022-11-15T08:11:11.125Z,9.661654
2022-11-15T08:12:12.115Z,9.661419
2022-11-15T08:13:11.182Z,9.661551
2022-11-15T08:14:11.110Z,9.661607
2022-11-15T08:15:11.098Z,9.661607
2022-11-15T08:16:11.126Z,9.661572
2022-11-15T08:17:11.121Z,9.661491
2022-11-15T08:18:11.100Z,9.661663
2022-11-15T08:19:11.163Z,9.661628
2022-11-15T08:20:11.113Z,9.661720
2022-11-15T08:21:14.220Z,9.661665
2022-11-15T08:22:12.062Z,9.661620
2022-11-15T08:23:11.082Z,9.661715
2022-11-15T08:24:11.104Z,9.661717
2022-11-15T08:25:11.090Z,9.661728
2022-11-15T08:26:11.103Z,9.661749
2022-11-15T08:27:11.064Z,9.661657
2022-11-15T08:28:11.142Z,9.661734
2022-11-15T08:29:11.063Z,9.661693
2022-11-15T08:30:11.836Z,9.661611
2022-11-15T08:31:11.034Z,9.661712
2022-11-15T08:32:11.007Z,9.661502
2022-11-15T08:33:10.992Z,9.661677
2022-11-15T08:34:11.019Z,9.661538
2022-11-15T08:35:11.008Z,9.661341
2022-11-15T08:36:11.005Z,9.661615
2022-11-15T08:37:10.978Z,9.661654
2022-11-15T08:38:11.034Z,9.661639
2022-11-15T08:39:10.969Z,9.661473
2022-11-15T08:40:10.961Z,9.661588
2022-11-15T08:41:11.099Z,9.661671
2022-11-15T08:42:13.540Z,9.661695
2022-11-15T08:43:11.926Z,9.661723
2022-11-15T08:44:10.952Z,9.661723
2022-11-15T08:45:10.940Z,9.661663
2022-11-15T08:46:10.949Z,9.661710
2022-11-15T08:47:10.922Z,9.661802
2022-11-15T08:48:10.918Z,9.661775
2022-11-15T08:49:10.889Z,9.661750
2022-11-15T08:50:10.928Z,9.661570
2022-11-15T08:51:11.884Z,9.661617
2022-11-15T08:52:10.923Z,9.661664
2022-11-15T08:53:10.876Z,9.661576
2022-11-15T08:54:10.902Z,9.661667
2022-11-15T08:55:10.893Z,9.661643
2022-11-15T08:56:10.873Z,9.661824
2022-11-15T08:57:10.891Z,9.661620
2022-11-15T08:58:10.911Z,9.661646
2022-11-15T08:59:10.857Z,9.661582
2022-11-15T09:00:10.844Z,9.661895
2022-11-15T09:01:12.871Z,9.661905
2022-11-15T09:02:11.906Z,9.661665
2022-11-15T09:03:10.865Z,9.661425
2022-11-15T09:04:10.848Z,9.661431
2022-11-15T09:05:10.803Z,9.661409
2022-11-15T09:06:11.882Z,9.661392
2022-11-15T09:07:10.838Z,9.661509
2022-11-15T09:08:32.797Z,9.661572
2022-11-15T09:09:11.772Z,9.661488
2022-11-15T09:10:10.797Z,9.661477
2022-11-15T09:11:10.757Z,9.661531
2022-11-15T09:12:10.777Z,9.661533
2022-11-15T09:13:10.889Z,9.661555
2022-11-15T09:14:10.896Z,9.661546
2022-11-15T09:15:10.779Z,9.661473
2022-11-15T09:16:10.794Z,9.661334
2022-11-15T09:17:10.733Z,9.661444
2022-11-15T09:18:10.706Z,9.661371
2022-11-15T09:19:12.081Z,9.661429
2022-11-15T09:20:10.773Z,9.661481
2022-11-15T09:21:10.749Z,9.661497
2022-11-15T09:22:10.756Z,9.661492
2022-11-15T09:23:10.724Z,9.661493
2022-11-15T09:24:10.808Z,9.661491
2022-11-15T09:25:11.340Z,9.661470
2022-11-15T09:26:11.690Z,9.661445
2022-11-15T09:27:10.664Z,9.661538
2022-11-15T09:28:10.659Z,9.661499
2022-11-15T09:29:10.671Z,9.661572
2022-11-15T09:30:10.779Z,9.661465
2022-11-15T09:31:10.640Z,9.661521
2022-11-15T09:32:10.688Z,9.661555
2022-11-15T09:33:10.637Z,9.661555
2022-11-15T09:34:10.629Z,9.661495
2022-11-15T09:35:10.639Z,9.661492
2022-11-15T09:36:10.658Z,9.661526
2022-11-15T09:37:10.631Z,9.661455
2022-11-15T09:38:10.636Z,9.661433
2022-11-15T09:39:10.608Z,9.661480
2022-11-15T09:40:10.589Z,9.661593
2022-11-15T09:41:11.649Z,9.661476
2022-11-15T09:42:10.590Z,9.661504
2022-11-15T09:43:10.594Z,9.661552
2022-11-15T09:44:10.605Z,9.661515
2022-11-15T09:45:10.605Z,9.661618
2022-11-15T09:46:10.573Z,9.661566
2022-11-15T09:47:10.577Z,9.661560
2022-11-15T09:48:10.561Z,9.661537
2022-11-15T09:49:10.563Z,9.661535
2022-11-15T09:50:10.560Z,9.661587
2022-11-15T09:51:10.575Z,9.661590
2022-11-15T09:52:10.548Z,9.661632
2022-11-15T09:53:10.547Z,9.661537
2022-11-15T09:55:12.525Z,9.661654
2022-11-15T09:56:10.554Z,9.661694
2022-11-15T09:57:15.736Z,9.661604
2022-11-15T09:58:12.490Z,9.661660
2022-11-15T09:59:10.526Z,9.661573
2022-11-15T10:01:12.548Z,9.661518
2022-11-15T10:02:10.504Z,9.661605
2022-11-15T10:03:10.486Z,9.661686
2022-11-15T10:04:11.984Z,9.661621
2022-11-15T10:05:11.479Z,9.661583
2022-11-15T10:06:10.511Z,9.661546
2022-11-15T10:07:10.597Z,9.661435
2022-11-15T10:08:10.455Z,9.661464
2022-11-15T10:09:10.453Z,9.661397
2022-11-15T10:10:10.443Z,9.661649
2022-11-15T10:11:36.172Z,9.661467
2022-11-15T10:12:11.442Z,9.661475
2022-11-15T10:13:10.466Z,9.661668
2022-11-15T10:14:10.413Z,9.661474
2022-11-15T10:15:10.414Z,9.661403
2022-11-15T10:16:10.420Z,9.661317
2022-11-15T10:17:10.418Z,9.661398
2022-11-15T10:18:10.416Z,9.661471
2022-11-15T10:19:10.388Z,9.661477
2022-11-15T10:20:10.372Z,9.661539
2022-11-15T10:21:10.389Z,9.661561
2022-11-15T10:22:10.824Z,9.661575
2022-11-15T10:23:10.379Z,9.661513
2022-11-15T10:24:10.367Z,9.661518
2022-11-15T10:25:10.363Z,9.661540
2022-11-15T10:26:10.362Z,9.661465
2022-11-15T10:27:10.376Z,9.661607
2022-11-15T10:28:10.342Z,9.661609
2022-11-15T10:29:10.332Z,9.661515
2022-11-15T10:30:10.351Z,9.661628
2022-11-15T10:31:14.302Z,9.661669
2022-11-15T10:32:11.223Z,9.661694
2022-11-15T10:33:10.358Z,9.661677
2022-11-15T10:34:10.309Z,9.661662
2022-11-15T10:35:10.321Z,9.661602
2022-11-15T10:36:10.360Z,9.661579
2022-11-15T10:37:10.315Z,9.661592
2022-11-15T10:38:10.292Z,9.661548
2022-11-15T10:39:10.290Z,9.661622
2022-11-15T10:40:10.257Z,9.661703
2022-11-15T10:41:10.253Z,9.661787
2022-11-15T10:42:13.991Z,9.661424
2022-11-15T10:43:11.261Z,9.661475
2022-11-15T10:44:10.280Z,9.661592
2022-11-15T10:45:10.264Z,9.661570
2022-11-15T10:46:39.349Z,9.661574
2022-11-15T10:47:11.272Z,9.661655
2022-11-15T10:48:10.208Z,9.661485
2022-11-15T10:49:10.221Z,9.661562
2022-11-15T10:50:10.214Z,9.661599
2022-11-15T10:51:10.231Z,9.661592
2022-11-15T10:52:10.186Z,9.661572
2022-11-15T10:53:10.327Z,9.661461
2022-11-15T10:54:13.023Z,9.661621
2022-11-15T10:55:11.202Z,9.661580
2022-11-15T10:56:10.202Z,9.661807
2022-11-15T10:57:10.195Z,9.661635
2022-11-15T10:58:10.195Z,9.661585
2022-11-15T10:59:10.209Z,9.661527
2022-11-15T11:00:10.164Z,9.661587
2022-11-15T11:01:10.218Z,9.661494
2022-11-15T11:02:10.176Z,9.661618
2022-11-15T11:03:10.155Z,9.661694
2022-11-15T11:04:10.182Z,9.661638
2022-11-15T11:05:10.168Z,9.661561
2022-11-15T11:06:10.122Z,9.661516
2022-11-15T11:07:10.146Z,9.661504
2022-11-15T11:08:10.096Z,9.661583
2022-11-15T11:09:10.246Z,9.661549
2022-11-15T11:10:36.301Z,9.661504
2022-11-15T11:11:11.124Z,9.661502
2022-11-15T11:12:10.106Z,9.661413
2022-11-15T11:13:10.141Z,9.661523
2022-11-15T11:14:10.068Z,9.661734
2022-11-15T11:15:10.111Z,9.661702
2022-11-15T11:16:10.080Z,9.661808
2022-11-15T11:17:10.068Z,9.661808
2022-11-15T11:18:10.086Z,9.661599
2022-11-15T11:19:10.051Z,9.661456
2022-11-15T11:20:10.061Z,9.661188
2022-11-15T11:21:10.080Z,9.661244
2022-11-15T11:22:10.069Z,9.661405
2022-11-15T11:23:10.020Z,9.661435
2022-11-15T11:24:10.038Z,9.661370
2022-11-15T11:25:10.010Z,9.661604
2022-11-15T11:26:10.067Z,9.661547
2022-11-15T11:27:09.997Z,9.661183
2022-11-15T11:28:10.022Z,9.661191
2022-11-15T11:29:09.970Z,9.661208
2022-11-15T11:30:10.006Z,9.660948
2022-11-15T11:31:09.991Z,9.660726
2022-11-15T11:32:09.949Z,9.660444
2022-11-15T11:33:09.961Z,9.660271
2022-11-15T11:34:09.965Z,9.660194
2022-11-15T11:35:09.968Z,9.660237
2022-11-15T11:36:09.921Z,9.660190
2022-11-15T11:37:10.057Z,9.660307
2022-11-15T11:38:09.930Z,9.660362
2022-11-15T11:39:09.935Z,9.660875
2022-11-15T11:40:11.018Z,9.661470
2022-11-15T11:41:10.912Z,9.662004
2022-11-15T11:42:10.461Z,9.662023
2022-11-15T11:43:09.940Z,9.662343
2022-11-15T11:44:09.883Z,9.663066
2022-11-15T11:45:09.898Z,9.663120
2022-11-15T11:46:09.873Z,9.662390
2022-11-15T11:47:09.915Z,9.662045
2022-11-15T11:48:09.907Z,9.661743
2022-11-15T11:49:10.875Z,9.661370